Decoded Metar for DTTF (GAFSA in TUNISIA) (IATA:GAF) | Meteo·Mobile Aviation Weather
aviador You're here:

DTTF Decoded Metar

GAFSA in TUNISIA
Report Time2018-10-18 08:00:00
UTC Time2018-10-18 08:54:44
Flight Rules vfr VFR
Wind040° at 05 kt
W.Decomp.*RWY 05: 4.9 kt HW 1 kt LCW
W.Rank040° ranks 3
Current wind is below 040° avg. (9.3)
Visibility9999 m
Phenomena:N/A
Clouds:Few 033 Hf
Expected CloudBase > 2,000 ft AGL from Temp-Dew spread
CeilingNone
Temp17°C (ISA +4)
Dew Point12°C (73% RH)
AAT15.9°C
QNH1005 hPa
Density Alt1,969 ft
Elevation1,030 ft
Report Wrong Elevation
Raw Report
METAR DTTF 180800Z 04005KT 9999 FEW033 17/12 Q1005 NOSIG=

Extra information for DTTF:More info

Metar Taf Metar & Taf Last 4 Metars F.Rules Stats Wind Profile Meteogram Temp Stats Airport Information Weather charts Add Link Nearby VenuesMetar ALERT Operation Metar Decoded Social comments